Decoded Metar for KAMW (AMES in IA, USA) (IATA:AMW) | Meteo·Mobile Aviation Weather
aviador You're here:

KAMW Decoded Metar

AMES in IA, USA
Report Time2018-11-12 21:53:00
UTC Time2018-11-12 22:02:54
Flight Rules vfr VFR
Wind340° at 13 kt
W.Decomp.*RWY 31: 11.6 kt HW 5.9 kt RCW
RWY 01: 10.9 kt HW 7.1 kt LCW
W.Rank340° ranks 4
Current wind is above 340° avg. (10.6)
Visibility9999 m
Phenomena:N/A
Clouds:Overcast 033 Hf
Expected CloudBase > 3,200 ft AGL from Temp-Dew spread
Ceiling3,300 ft
Temp-5°C (ISA -18)
Dew Point-13°C (54% RH)
AAT-12.9°C
QNH1032 hPa
Density Alt-1,939 ft
Elevation915 ft
Report Wrong Elevation
Raw Report
KAMW 122153Z AUTO 34013KT 10SM OVC033 M05/M13 A3048 RMK AO2 SLP335
T10501128=

Extra information for KAMW:More info

Metar Taf Metar & Taf Last 4 Metars F.Rules Stats Wind Profile Meteogram Temp Stats Airport Information Weather charts Add Link Nearby VenuesMetar ALERT Operation Metar Decoded Social comments

AIRNAV info for KAMW